LYBELGSK

Guest
Details From LYBE - Belgrade
To LGSK - Skiathos Alexandros Papadiamantis
Flight Number -
Tags decoded
Created
Modified
Stats Distance 425 nm / 786 km
Max Altitude 0 ft / 0 m
Waypoints 8
Social Downloads 3
Likes 0
Share VATSIM

Download

Looking for another format? Having issues loading an existing format? Contact us
Advertisement - Login to hide

Notes

Requested: LYBE TPL GINAM RAXAD UN128 FSK OMIRO LGSK Unmatched points: GINAM

Route

LYBE TPL RAXAD UN128 FSK OMIRO LGSK

ID Type Via Altitude Latitude Longitude Leg Dist Tot Dist Heading (true) Name
O LYBE APT - 0 ft / 0 m 44.81843˚ 20.30921˚ - 0 nm - Belgrade
TPL NDB - 0 ft / 0 m 44.13978˚ 20.74567˚ 44 nm 44 nm 155° / 156° TOPOLA NDB
RAXAD FIX - 0 ft / 0 m 42.30742˚ 22.24208˚ 128 nm 172 nm 149° / 150° -
SIN VOR UN128 (AWY-HI) 0 ft / 0 m 41.98083˚ 22.36556˚ 20 nm 193 nm 164° / 164° SINKO VOR-DME
RUGAS FIX UN128 (AWY-HI) 0 ft / 0 m 41.32944˚ 22.79139˚ 43 nm 236 nm 154° / 154° -
FSK VOR UN128 (AWY-HI) 0 ft / 0 m 41.09972˚ 22.99222˚ 16 nm 253 nm 147° / 147° FISKA VOR-DME
OMIRO FIX - 0 ft / 0 m 38.75000˚ 23.66722˚ 144 nm 397 nm 167° / 168° -
O LGSK APT - 0 ft / 0 m 39.17710˚ 23.50368˚ 26 nm 424 nm 343° / 343° Skiathos Alexandros Papadiamantis

Altitude Profile

Advertisement - Login to hide

Weather


0- 5 10 15 20 25 30 35+ Temperature / ° C

Clouds and Precipitation
Forecast for 2018-05-21 18:00 UTC. Updated 26 minutes ago

Ground ~20,000 ft ~40,000 ft Winds

LYBE

Details ICAO LYBE (BEG)
Name Belgrade
Region Serbia and Montenegro
Timezone Europe/Belgrade (UTC+2.0)
Stats Elevation 335 ft / 102 m (AMSL)
Location 44.818429° 20.309211°
Runways 1
Magnetic Variation 4.719° E

METAR

LYBE 211530Z 13011KT 9999 SCT040 24/14 Q1014 NOSIG

Decode

TAF

TAF LYBE 211100Z 2112/2212 13009KT 9999 SCT040 TX27/2212Z TN13/2203Z PROB40 TEMPO 2115/2118 VRB20KT 5000 TSRA SCT033CB BKN040 BECMG 2205/2207 13012KT

Decode

Departure Runways

ID Width Length Bearing (true) Bearing (mag) Surface Threshold Offset Overrun Length
12 148 ft / 45 m 11,138 ft / 3,395 m 122.00° 117.28° Asphalt 1,000 ft / 305 m 0 ft / 0 m
30 148 ft / 45 m 11,138 ft / 3,395 m 302.03° 297.31° Asphalt 1,312 ft / 400 m 0 ft / 0 m

LGSK

Details ICAO LGSK (JSI)
Name Skiathos Alexandros Papadiamantis
Region Greece
Timezone Europe/Athens (UTC+3.0)
Stats Elevation 54 ft / 16 m (AMSL)
Location 39.177100° 23.503677°
Runways 1
Magnetic Variation 4.596° E

METAR

LGSK 211450Z 02007KT 9999 FEW020 23/15 Q1014

Decode

TAF

Not found

Destination Runways

ID Width Length Bearing (true) Bearing (mag) Surface Threshold Offset Overrun Length
02 98 ft / 30 m 5,535 ft / 1,687 m 18.96° 14.36° Asphalt 190 ft / 58 m 0 ft / 0 m
20 98 ft / 30 m 5,535 ft / 1,687 m 198.97° 194.37° Asphalt 0 ft / 0 m 242 ft / 74 m

Popular Alternatives